Airfield :







YOU CAN JOIN US ON...

 
LOGIN :

Register | Disclaimer

   EN    FR    IT 

 









Legend :    VFR   Marginal VFR   IFR   Intensive IFR   Very Intensive IFR
Visi :
Ceiling :
>= 8 km
>= 3000ft
5 to 8 km
1000 to 3000 ft
1500m to 5 km
500 to 1000 ft
800 to 1500m
200 to 500 ft
< 800m
< 200 ft
Symbols :   Thunderstorms  Fog  Heavy snow  Heavy precipitations  Wind > 20 kt






- Airport Elevation : 203 ft
- IATA code : YQY


CYQY - Sydney

CURRENT METAR :
  • 302300Z 16005KT 080V160 15SM BKN170 00/M02 A3049 RMK AS5 SLP329

EXPIRED METARs :
  • 302200Z 16006KT 15SM FEW190 BKN220 01/M02 A3047 RMK AS2CS3 SLP323
  • 302100Z 16007KT 15SM BKN230 02/M02 A3046 RMK CS5 SLP321

TAF TAF CYQY
Valid from the 30 at 18:00 until the 01 at 06:00 UTC


301738Z 3018/0106 VRB03KT P6SM FEW025
BECMG 3019/3021 18012KT
FM010400 18015KT P6SM SCT030 OVC180 RMK NXT FCST BY 010000Z
CZQM FIR / North America



MET'MAP, your aeronautical weather chart ! - Copyright ORBIFLY December 2007 - Disclaimer

ORBIFLY MET'MAP TEAM :

Programming & Development : Alexandra Zaïnal
Concept & original design : Baudouin d'Aumeries
Assistance for programming : Marc-Olivier Méhu
Technical & hardware support : Manuel Goepfert

Contact : metmap@orbifly.com




SOURCES & CREDITS :

   NOAA